Time;durP1;ratioP1;P1;durP2;ratioP2;P2;SDS_P1;SDS_P2;PMS_P1;PMS_P2;Temp;Humidity;BMP_temperature;BMP_pressure;BME280_temperature;BME280_humidity;BME280_pressure;Samples;Min_cycle;Max_cycle;Signal;HPM_P1;HPM_P2
2022/01/02 00:00:37;;;;;;;4.53;4.00;;;;;;;10.29;58.10;101704.77;1598712;89;21124;-54
2022/01/02 00:03:04;;;;;;;5.00;4.50;;;;;;;10.27;57.93;101709.13;1595077;89;21432;-54
2022/01/02 00:05:35;;;;;;;4.95;4.37;;;;;;;10.28;57.86;101716.06;1620810;85;21598;-54
2022/01/02 00:08:10;;;;;;;4.33;3.87;;;;;;;10.28;57.83;101712.17;1665151;85;21085;-54
2022/01/02 00:10:45;;;;;;;4.58;4.08;;;;;;;10.27;57.80;101712.59;1638158;86;21554;-54
2022/01/02 00:13:21;;;;;;;4.60;3.95;;;;;;;10.25;57.78;101718.67;1656494;85;21055;-54
2022/01/02 00:15:48;;;;;;;4.03;3.62;;;;;;;10.25;57.83;101719.97;1605182;89;21105;-54
2022/01/02 00:18:16;;;;;;;3.98;3.58;;;;;;;10.25;57.89;101719.97;1602512;88;21522;-53
2022/01/02 00:20:47;;;;;;;4.72;3.62;;;;;;;10.27;57.87;101724.73;1611182;88;21666;-54
2022/01/02 00:23:22;;;;;;;4.62;4.08;;;;;;;10.27;57.79;101724.30;1596514;88;21657;-54
2022/01/02 00:25:53;;;;;;;4.47;3.55;;;;;;;10.29;57.79;101722.98;1608945;89;21084;-53
2022/01/02 00:28:20;;;;;;;4.42;3.92;;;;;;;10.29;57.62;101725.59;1575768;89;21057;-54
2022/01/02 00:30:47;;;;;;;4.33;3.92;;;;;;;10.27;57.54;101730.80;1580985;89;21095;-53
2022/01/02 00:33:14;;;;;;;3.58;3.27;;;;;;;10.28;57.44;101731.67;1549715;91;21537;-53
2022/01/02 00:35:40;;;;;;;3.72;3.25;;;;;;;10.26;57.40;101729.05;1561570;91;21580;-53
2022/01/02 00:38:09;;;;;;;4.58;3.75;;;;;;;10.26;57.32;101738.63;1561718;90;21634;-53
2022/01/02 00:40:40;;;;;;;4.17;3.50;;;;;;;10.25;57.28;101748.58;1538934;91;21065;-54
2022/01/02 00:43:09;;;;;;;3.98;3.55;;;;;;;10.25;57.18;101752.48;1535785;93;21645;-53
2022/01/02 00:45:45;;;;;;;3.80;3.50;;;;;;;10.22;57.16;101757.72;1558452;91;21021;-54
2022/01/02 00:48:16;;;;;;;3.77;3.47;;;;;;;10.22;57.08;101764.22;1552775;92;21078;-53
2022/01/02 00:50:51;;;;;;;4.00;3.50;;;;;;;10.20;56.92;101764.66;1551319;92;21594;-53
2022/01/02 00:53:20;;;;;;;4.10;3.12;;;;;;;10.19;56.86;101773.32;1512829;94;21634;-54
2022/01/02 00:55:48;;;;;;;6.22;3.95;;;;;;;10.18;56.76;101771.61;1535779;92;21088;-53
2022/01/02 00:58:17;;;;;;;4.15;3.75;;;;;;;10.17;56.67;101770.73;1525951;93;21568;-53
2022/01/02 01:00:49;;;;;;;4.33;3.30;;;;;;;10.16;56.56;101781.99;1523791;94;21068;-53
2022/01/02 01:03:22;;;;;;;;;;;;;;;10.15;56.47;101780.70;1520270;94;21105;-51
2022/01/02 01:05:49;;;;;;;4.28;3.20;;;;;;;10.13;56.28;101779.84;1482348;96;20123;-53
2022/01/02 01:08:16;;;;;;;3.72;2.90;;;;;;;10.04;56.08;101776.80;1481462;96;21148;-53
2022/01/02 01:10:45;;;;;;;7.78;2.60;;;;;;;9.97;55.94;101782.05;1482575;96;21099;-52
2022/01/02 01:13:11;;;;;;;2.67;2.25;;;;;;;9.89;55.89;101789.00;1480461;95;21072;-52
2022/01/02 01:15:40;;;;;;;3.30;2.50;;;;;;;9.82;55.81;101791.62;1488520;95;21667;-52
2022/01/02 01:18:06;;;;;;;2.27;2.08;;;;;;;9.76;55.80;101795.95;1477793;96;21604;-52
2022/01/02 01:20:41;;;;;;;2.12;1.90;;;;;;;9.74;55.68;101795.97;1467997;97;21662;-52
2022/01/02 01:23:12;;;;;;;2.27;2.08;;;;;;;9.71;55.74;101804.18;1498514;94;21134;-52
2022/01/02 01:25:44;;;;;;;3.40;2.30;;;;;;;9.67;55.63;101795.53;1520418;92;21126;-52
2022/01/02 01:28:06;;;;;;;2.83;1.75;;;;;;;9.63;55.62;101800.30;1541027;90;21546;-52
2022/01/02 01:30:33;;;;;;;3.33;1.72;;;;;;;9.60;55.58;101800.30;1546885;91;21097;-53
2022/01/02 01:33:01;;;;;;;1.90;1.70;;;;;;;9.57;55.46;101808.11;1604364;88;21094;-52
2022/01/02 01:35:28;;;;;;;3.02;2.37;;;;;;;9.53;55.48;101815.48;1594067;88;21096;-52
2022/01/02 01:37:55;;;;;;;2.05;1.75;;;;;;;9.51;55.45;101813.31;1595558;88;21055;-52
2022/01/02 01:40:22;;;;;;;3.35;1.90;;;;;;;9.48;55.45;101818.50;1566996;90;21121;-53
2022/01/02 01:42:58;;;;;;;1.92;1.75;;;;;;;9.46;55.38;101820.23;1573184;90;21081;-52
2022/01/02 01:45:29;;;;;;;2.87;1.50;;;;;;;9.44;55.27;101823.27;1634697;86;21050;-52
2022/01/02 01:47:59;;;;;;;;;;;;;;;9.41;55.28;101824.58;1655360;86;21116;-52
2022/01/02 01:50:35;;;;;;;1.70;1.50;;;;;;;9.40;55.28;101830.63;1653016;86;20688;-52
2022/01/02 01:53:02;;;;;;;1.70;1.40;;;;;;;9.39;55.17;101826.31;1656993;86;21011;-52
2022/01/02 01:55:31;;;;;;;3.10;1.65;;;;;;;9.36;54.98;101827.59;1657171;86;21066;-52
2022/01/02 01:58:00;;;;;;;2.10;1.65;;;;;;;9.32;54.99;101824.98;1659747;86;21022;-52
2022/01/02 02:00:28;;;;;;;2.20;1.40;;;;;;;9.28;54.99;101837.54;1652303;86;21526;-52
2022/01/02 02:02:56;;;;;;;1.98;1.60;;;;;;;9.25;55.09;101833.23;1706429;81;21024;-52
2022/01/02 02:05:25;;;;;;;2.17;1.40;;;;;;;9.24;55.14;101824.99;1731708;81;21067;-52
2022/01/02 02:07:52;;;;;;;1.65;1.30;;;;;;;9.23;55.20;101827.17;1759629;80;21001;-52
2022/01/02 02:10:28;;;;;;;1.82;1.25;;;;;;;9.23;55.28;101832.38;1770645;80;21455;-52
2022/01/02 02:12:57;;;;;;;2.15;1.70;;;;;;;9.23;55.42;101837.56;1756922;80;20991;-52
2022/01/02 02:15:26;;;;;;;2.08;1.52;;;;;;;9.24;55.43;101843.17;1758516;80;21022;-52
2022/01/02 02:17:53;;;;;;;2.40;1.62;;;;;;;9.25;55.45;101843.63;1752159;81;21518;-52
2022/01/02 02:20:35;;;;;;;1.45;1.35;;;;;;;9.27;55.33;101838.00;1761506;80;21593;-52
2022/01/02 02:23:04;;;;;;;1.80;1.65;;;;;;;9.27;55.31;101847.52;1761191;80;21477;-52
2022/01/02 02:25:35;;;;;;;2.10;1.90;;;;;;;9.29;55.21;101845.36;1758767;80;20991;-52
2022/01/02 02:28:12;;;;;;;2.70;1.77;;;;;;;9.26;55.14;101849.23;1727599;82;21063;-52
2022/01/02 02:30:43;;;;;;;1.90;1.70;;;;;;;9.24;55.16;101859.18;1657857;85;21062;-52
2022/01/02 02:33:10;;;;;;;2.42;1.82;;;;;;;9.21;55.25;101860.03;1662703;85;21582;-52
2022/01/02 02:35:38;;;;;;;1.40;1.30;;;;;;;9.21;55.26;101867.83;1673022;86;21140;-52
2022/01/02 02:38:07;;;;;;;3.70;1.65;;;;;;;9.23;55.25;101867.43;1665619;86;21570;-53
2022/01/02 02:40:34;;;;;;;1.60;1.50;;;;;;;9.25;55.15;101876.52;1668973;86;21050;-53
2022/01/02 02:43:08;;;;;;;1.60;1.35;;;;;;;9.24;55.06;101875.64;1666272;85;21181;-52
2022/01/02 02:51:18;;;;;;;1.90;1.25;;;;;;;9.21;55.00;101882.56;1669066;85;21157;-52
2022/01/02 02:53:46;;;;;;;2.22;1.30;;;;;;;9.20;54.99;101882.99;1597665;89;21271;-52
2022/01/02 02:56:18;;;;;;;1.90;1.30;;;;;;;9.22;55.08;101896.84;1588702;89;21059;-52
2022/01/02 02:58:43;;;;;;;2.47;1.60;;;;;;;9.26;54.96;101897.70;1578971;89;21026;-52
2022/01/02 03:01:14;;;;;;;1.90;1.55;;;;;;;9.29;54.91;101897.30;1592912;89;21047;-52
2022/01/02 03:03:42;;;;;;;1.37;1.25;;;;;;;9.30;54.77;101905.52;1593086;88;21491;-52
2022/01/02 03:06:09;;;;;;;1.50;1.40;;;;;;;9.27;54.72;101904.23;1602411;89;22707;-52
2022/01/02 03:08:36;;;;;;;1.45;1.30;;;;;;;9.27;54.69;101914.61;1597215;89;21026;-53
2022/01/02 03:11:06;;;;;;;1.65;1.30;;;;;;;9.24;54.59;101913.72;1591877;88;21059;-52
2022/01/02 03:13:33;;;;;;;1.10;1.00;;;;;;;9.20;54.26;101914.58;1602388;89;21098;-52
2022/01/02 03:16:00;;;;;;;1.32;1.00;;;;;;;9.12;54.05;101918.47;1596210;89;21107;-52
2022/01/02 03:18:27;;;;;;;0.80;0.80;;;;;;;9.04;53.90;101924.06;1597796;89;21122;-52
2022/01/02 03:20:55;;;;;;;0.90;0.75;;;;;;;8.98;53.51;101919.70;1592897;89;21144;-52
2022/01/02 03:23:21;;;;;;;0.95;0.85;;;;;;;8.93;53.36;101917.97;1589982;88;21169;-52
2022/01/02 03:25:48;;;;;;;0.93;0.82;;;;;;;8.88;53.14;101930.08;1567571;90;21070;-52
2022/01/02 03:28:17;;;;;;;1.10;1.00;;;;;;;8.87;53.16;101938.70;1634444;86;21053;-52
2022/01/02 03:30:44;;;;;;;2.47;0.90;;;;;;;8.85;52.98;101932.22;1635980;86;21037;-52
2022/01/02 03:33:11;;;;;;;1.10;0.90;;;;;;;8.85;52.97;101940.01;1628684;86;21061;-51
2022/01/02 03:35:38;;;;;;;0.72;0.72;;;;;;;8.88;52.92;101953.44;1635589;86;21101;-52
2022/01/02 03:38:05;;;;;;;1.65;0.80;;;;;;;8.89;52.81;101956.45;1645315;86;21120;-52
2022/01/02 03:40:33;;;;;;;0.68;0.68;;;;;;;8.89;52.81;101959.05;1638023;86;21134;-52
2022/01/02 03:42:59;;;;;;;2.30;1.20;;;;;;;8.89;52.72;101969.01;1619274;86;21093;-52
2022/01/02 03:45:27;;;;;;;1.30;0.70;;;;;;;8.91;52.79;101971.60;1620905;86;22530;-52
2022/01/02 03:47:55;;;;;;;1.25;1.07;;;;;;;8.92;52.86;101973.35;1622371;86;21069;-52
2022/01/02 03:50:21;;;;;;;0.70;0.70;;;;;;;8.94;52.86;101965.14;1643097;86;21061;-52
2022/01/02 03:52:50;;;;;;;1.47;0.60;;;;;;;8.98;52.82;101966.89;1624613;86;21094;-52
2022/01/02 03:55:17;;;;;;;0.60;0.60;;;;;;;9.01;52.74;101976.84;1636694;87;21546;-52
2022/01/02 03:57:43;;;;;;;0.70;0.70;;;;;;;9.03;52.58;101985.08;1667517;84;21074;-52
2022/01/02 04:00:13;;;;;;;1.85;0.70;;;;;;;9.00;52.30;101987.23;1708227;84;21082;-52
2022/01/02 04:02:42;;;;;;;;;;;;;;;8.98;52.26;101984.60;1733835;82;21483;-52
2022/01/02 04:05:12;;;;;;;1.57;0.78;;;;;;;9.01;52.05;101996.73;1705246;83;20175;-52
2022/01/02 04:07:42;;;;;;;1.50;0.60;;;;;;;8.99;52.16;101991.97;1750758;81;21533;-52
2022/01/02 04:10:13;;;;;;;2.22;0.62;;;;;;;9.01;52.10;101995.44;1751261;81;21108;-52
2022/01/02 04:12:42;;;;;;;0.85;0.78;;;;;;;9.01;52.06;102000.63;1737976;81;21553;-52
2022/01/02 04:15:12;;;;;;;1.32;0.82;;;;;;;9.00;52.11;101995.86;1750489;80;21085;-52
2022/01/02 04:17:40;;;;;;;1.45;0.98;;;;;;;9.00;52.21;101997.61;1750547;80;20986;-52
2022/01/02 04:20:10;;;;;;;1.55;0.80;;;;;;;8.99;52.21;102017.50;1748121;81;21064;-52
2022/01/02 04:22:37;;;;;;;0.80;0.60;;;;;;;8.97;52.26;102013.16;1752168;80;21130;-51
2022/01/02 04:25:06;;;;;;;1.05;0.68;;;;;;;8.92;52.35;102020.08;1749712;81;21027;-52
2022/01/02 04:27:34;;;;;;;1.47;0.70;;;;;;;8.91;52.46;102028.70;1753321;80;21022;-52
2022/01/02 04:30:01;;;;;;;3.37;1.00;;;;;;;8.89;52.53;102029.13;1759956;80;21045;-52
2022/01/02 04:32:29;;;;;;;1.60;1.20;;;;;;;8.86;52.57;102036.46;1751369;81;21093;-54
2022/01/02 04:34:56;;;;;;;1.45;0.70;;;;;;;8.82;52.64;102039.06;1760580;80;20986;-52
2022/01/02 04:37:22;;;;;;;0.80;0.80;;;;;;;8.80;52.82;102043.34;1766210;81;21069;-52
2022/01/02 04:39:49;;;;;;;2.20;0.68;;;;;;;8.78;52.87;102042.47;1757972;80;21119;-52
2022/01/02 04:42:16;;;;;;;1.65;0.70;;;;;;;8.77;52.91;102042.04;1761615;81;21114;-52
2022/01/02 04:44:44;;;;;;;1.57;0.70;;;;;;;8.76;52.90;102041.59;1753743;80;21042;-52
2022/01/02 04:47:12;;;;;;;0.70;0.60;;;;;;;8.75;52.91;102047.66;1753578;80;21507;-53
2022/01/02 04:49:40;;;;;;;1.45;0.60;;;;;;;8.72;52.96;102045.90;1758223;81;21030;-52
2022/01/02 04:52:08;;;;;;;0.55;0.50;;;;;;;8.71;52.99;102057.58;1758945;81;21050;-52
2022/01/02 04:54:34;;;;;;;0.80;0.60;;;;;;;8.67;53.01;102051.93;1751670;81;21084;-52
2022/01/02 04:57:01;;;;;;;0.70;0.70;;;;;;;8.63;53.11;102060.13;1760008;81;20998;-53
2022/01/02 04:59:28;;;;;;;0.78;0.70;;;;;;;8.58;53.12;102060.94;1748338;81;21046;-52
2022/01/02 05:01:55;;;;;;;0.60;0.60;;;;;;;8.52;53.24;102064.78;1758550;81;21011;-53
2022/01/02 05:04:21;;;;;;;1.27;0.70;;;;;;;8.50;53.44;102063.91;1754203;81;21047;-52
2022/01/02 05:06:48;;;;;;;1.12;0.95;;;;;;;8.49;53.46;102069.97;1748505;81;21050;-52
2022/01/02 05:09:15;;;;;;;0.70;0.70;;;;;;;8.46;53.43;102072.10;1774345;80;20999;-52
2022/01/02 05:11:43;;;;;;;1.22;0.70;;;;;;;8.43;53.43;102075.95;1761888;80;22788;-52
2022/01/02 05:14:10;;;;;;;0.60;0.60;;;;;;;8.39;53.56;102076.78;1762267;80;21144;-52
2022/01/02 05:16:36;;;;;;;1.42;0.70;;;;;;;8.39;53.62;102078.53;1755021;80;21023;-52
2022/01/02 05:19:03;;;;;;;0.72;0.65;;;;;;;8.37;53.58;102080.22;1753801;80;21022;-52
2022/01/02 05:21:31;;;;;;;0.78;0.60;;;;;;;8.38;53.63;102071.59;1733452;80;21079;-52
2022/01/02 05:23:59;;;;;;;1.75;0.60;;;;;;;8.38;53.66;102076.36;1761671;81;21019;-52
2022/01/02 05:26:26;;;;;;;4.10;1.45;;;;;;;8.38;53.71;102084.56;1760505;80;21487;-52
2022/01/02 05:28:52;;;;;;;1.57;0.70;;;;;;;8.37;53.72;102081.52;1757083;80;21471;-52
2022/01/02 05:31:19;;;;;;;0.65;0.55;;;;;;;8.34;53.55;102095.77;1753026;81;21601;-52
2022/01/02 05:33:46;;;;;;;0.70;0.50;;;;;;;8.30;53.50;102100.48;1754782;80;21030;-52
2022/01/02 05:36:12;;;;;;;0.55;0.55;;;;;;;8.23;53.57;102108.18;1756627;80;21075;-52
2022/01/02 05:38:41;;;;;;;0.60;0.60;;;;;;;8.20;53.68;102114.63;1749615;80;21030;-52
2022/01/02 05:41:08;;;;;;;1.15;0.53;;;;;;;8.17;53.54;102123.69;1759265;80;21030;-51
2022/01/02 05:43:36;;;;;;;3.67;0.70;;;;;;;8.18;53.50;102129.30;1766566;80;21488;-52
2022/01/02 05:46:05;;;;;;;0.50;0.50;;;;;;;8.19;53.49;102128.45;1752965;81;21482;-52
2022/01/02 05:48:33;;;;;;;1.25;0.80;;;;;;;8.20;53.28;102141.00;1754198;80;20984;-52
2022/01/02 05:51:01;;;;;;;0.78;0.57;;;;;;;8.19;53.08;102142.72;1772509;80;21075;-52
2022/01/02 05:53:30;;;;;;;0.50;0.50;;;;;;;8.18;52.91;102148.73;1756474;80;21014;-52
2022/01/02 05:55:57;;;;;;;0.70;0.70;;;;;;;8.16;52.94;102149.15;1754598;81;21034;-51
2022/01/02 05:58:24;;;;;;;0.72;0.50;;;;;;;8.16;53.01;102154.34;1755740;80;21064;-52
2022/01/02 06:00:51;;;;;;;0.57;0.47;;;;;;;8.16;53.01;102158.22;1756032;81;21468;-52
2022/01/02 06:03:18;;;;;;;1.10;0.80;;;;;;;8.17;53.14;102158.69;1762122;80;21549;-52
2022/01/02 06:05:46;;;;;;;0.90;0.70;;;;;;;8.15;53.05;102162.98;1762089;80;21524;-52
2022/01/02 06:08:13;;;;;;;2.83;0.70;;;;;;;8.11;53.25;102161.22;1756734;80;21023;-52
2022/01/02 06:10:40;;;;;;;0.72;0.50;;;;;;;8.09;53.34;102157.73;1760163;80;21022;-52
2022/01/02 06:13:07;;;;;;;1.00;0.70;;;;;;;8.08;53.32;102163.76;1754139;80;21522;-52
2022/01/02 06:15:35;;;;;;;1.90;0.70;;;;;;;8.07;53.42;102168.94;1753515;80;21482;-52
2022/01/02 06:18:03;;;;;;;0.80;0.60;;;;;;;8.04;53.52;102176.25;1766378;80;21035;-52
2022/01/02 06:20:30;;;;;;;1.00;0.60;;;;;;;8.02;53.75;102187.02;1764631;80;21539;-52
2022/01/02 06:22:56;;;;;;;0.90;0.78;;;;;;;8.01;53.73;102199.98;1767737;80;21510;-52
2022/01/02 06:25:23;;;;;;;1.00;0.80;;;;;;;7.97;53.87;102197.78;1748315;80;20997;-52
2022/01/02 06:27:50;;;;;;;1.22;0.90;;;;;;;7.94;53.97;102196.44;1748921;80;21042;-52
2022/01/02 06:30:17;;;;;;;0.68;0.68;;;;;;;7.95;53.93;102199.49;1754393;80;21002;-52
2022/01/02 06:32:45;;;;;;;0.70;0.60;;;;;;;7.95;53.84;102206.39;1764576;80;21542;-52
2022/01/02 06:35:12;;;;;;;0.60;0.60;;;;;;;7.94;53.89;102209.39;1758950;80;21030;-52
2022/01/02 06:37:39;;;;;;;1.77;0.80;;;;;;;7.96;53.83;102214.59;1753145;80;21463;-52
2022/01/02 06:40:09;;;;;;;0.60;0.57;;;;;;;7.98;53.77;102224.13;1757212;80;20999;-52
2022/01/02 06:42:37;;;;;;;1.15;0.65;;;;;;;7.99;53.67;102226.31;1760301;80;20995;-52
2022/01/02 06:45:06;;;;;;;1.20;1.10;;;;;;;7.97;53.63;102228.89;1761170;80;21046;-52
2022/01/02 06:47:33;;;;;;;0.70;0.70;;;;;;;7.95;53.58;102220.22;1763247;80;21014;-52
2022/01/02 06:50:00;;;;;;;0.60;0.55;;;;;;;7.90;53.57;102219.28;1758853;80;21497;-52
2022/01/02 06:52:27;;;;;;;0.60;0.60;;;;;;;7.85;53.62;102224.82;1758823;80;21554;-52
2022/01/02 06:54:53;;;;;;;0.50;0.50;;;;;;;7.80;53.65;102220.44;1755195;80;21026;-52
2022/01/02 06:57:21;;;;;;;0.60;0.60;;;;;;;7.76;53.77;102232.50;1765993;80;21066;-52
2022/01/02 06:59:49;;;;;;;0.82;0.57;;;;;;;7.71;53.83;102243.20;1753594;80;20994;-54
2022/01/02 07:02:19;;;;;;;0.50;0.50;;;;;;;7.64;54.03;102243.99;1755279;80;21526;-52
2022/01/02 07:04:46;;;;;;;0.75;0.60;;;;;;;7.67;53.98;102245.31;1760981;80;21005;-52
2022/01/02 07:07:12;;;;;;;0.78;0.65;;;;;;;7.69;53.78;102259.16;1753035;80;21069;-52
2022/01/02 07:09:39;;;;;;;0.53;0.50;;;;;;;7.68;53.85;102270.39;1751043;80;21572;-52
2022/01/02 07:12:07;;;;;;;0.45;0.37;;;;;;;7.70;53.78;102281.64;1759497;80;21034;-52
2022/01/02 07:14:33;;;;;;;0.75;0.60;;;;;;;7.72;53.71;102279.94;1755238;80;21095;-52
2022/01/02 07:17:01;;;;;;;0.90;0.50;;;;;;;7.77;53.51;102291.67;1759268;80;21116;-52
2022/01/02 07:19:27;;;;;;;1.67;0.70;;;;;;;7.78;53.32;102285.62;1758549;80;21018;-52
2022/01/02 07:21:55;;;;;;;0.35;0.33;;;;;;;7.80;53.21;102291.70;1755916;80;21046;-53
2022/01/02 07:24:21;;;;;;;0.37;0.37;;;;;;;7.81;53.08;102285.23;1754517;80;21007;-52
2022/01/02 07:26:48;;;;;;;0.50;0.40;;;;;;;7.79;52.98;102286.94;1750894;80;21132;-52
2022/01/02 07:29:15;;;;;;;0.60;0.55;;;;;;;7.75;53.03;102273.49;1761483;80;21086;-52
2022/01/02 07:31:42;;;;;;;1.25;0.60;;;;;;;7.68;53.07;102269.09;1767872;80;21007;-52
2022/01/02 07:34:09;;;;;;;2.33;0.70;;;;;;;7.66;53.06;102266.91;1753856;80;21510;-52
2022/01/02 07:36:39;;;;;;;1.10;0.50;;;;;;;7.62;53.08;102274.19;1770208;80;21521;-52
2022/01/02 07:39:06;;;;;;;0.50;0.40;;;;;;;7.57;53.12;102279.72;1765048;81;21058;-52
2022/01/02 07:41:33;;;;;;;1.07;0.50;;;;;;;7.56;53.25;102298.71;1766187;80;21014;-53
2022/01/02 07:44:00;;;;;;;0.30;0.30;;;;;;;7.55;53.26;102301.25;1759636;80;21077;-52
2022/01/02 07:46:27;;;;;;;0.80;0.62;;;;;;;7.57;53.35;102318.56;1757441;80;21078;-52
2022/01/02 07:48:53;;;;;;;0.68;0.50;;;;;;;7.59;53.34;102320.76;1757923;80;21037;-52
2022/01/02 07:51:20;;;;;;;0.40;0.40;;;;;;;7.60;53.33;102323.81;1754266;80;20986;-52
2022/01/02 07:53:46;;;;;;;0.40;0.40;;;;;;;7.62;53.21;102331.19;1753555;80;21006;-52
2022/01/02 07:56:15;;;;;;;0.45;0.45;;;;;;;7.61;53.10;102331.13;1748469;80;21103;-52
2022/01/02 07:58:41;;;;;;;0.93;0.60;;;;;;;7.58;53.07;102337.58;1755163;80;21006;-52
2022/01/02 08:01:10;;;;;;;1.12;0.62;;;;;;;7.56;53.09;102340.16;1754573;80;21022;-52
2022/01/02 08:03:36;;;;;;;0.65;0.60;;;;;;;7.57;52.94;102335.41;1759643;80;20997;-52
2022/01/02 08:06:02;;;;;;;0.85;0.75;;;;;;;7.58;52.86;102337.16;1756552;80;21002;-52
2022/01/02 08:08:30;;;;;;;0.95;0.65;;;;;;;7.58;52.61;102335.88;1757555;81;21515;-51
2022/01/02 08:10:57;;;;;;;0.90;0.80;;;;;;;7.57;52.40;102351.36;1755523;80;21916;-52
2022/01/02 08:13:23;;;;;;;1.30;0.90;;;;;;;7.54;52.11;102356.09;1759857;80;20995;-52
2022/01/02 08:15:51;;;;;;;1.37;0.90;;;;;;;7.52;52.19;102362.98;1759801;80;21022;-52
2022/01/02 08:18:18;;;;;;;2.12;0.88;;;;;;;7.52;52.48;102367.27;1754018;81;21035;-52
2022/01/02 08:20:46;;;;;;;0.80;0.68;;;;;;;7.55;52.81;102366.89;1763503;80;21030;-52
2022/01/02 08:23:15;;;;;;;0.78;0.70;;;;;;;7.56;52.80;102365.18;1756899;80;21519;-52
2022/01/02 08:25:41;;;;;;;0.68;0.68;;;;;;;7.54;52.54;102363.88;1755703;80;20960;-52
2022/01/02 08:28:07;;;;;;;1.87;0.95;;;;;;;7.51;52.30;102367.69;1775527;80;21022;-52
2022/01/02 08:30:34;;;;;;;1.17;0.98;;;;;;;7.46;52.06;102360.25;1774153;80;21288;-52
2022/01/02 08:33:00;;;;;;;1.40;1.20;;;;;;;7.43;52.03;102358.05;1768725;80;20990;-52
2022/01/02 08:35:27;;;;;;;1.20;0.90;;;;;;;7.41;51.85;102355.44;1754295;80;21017;-52
2022/01/02 08:37:54;;;;;;;1.02;0.98;;;;;;;7.40;51.83;102345.50;1752114;80;21133;-52
2022/01/02 08:40:20;;;;;;;1.12;1.02;;;;;;;7.41;51.37;102352.85;1764419;80;21007;-52
2022/01/02 08:42:47;;;;;;;1.70;1.00;;;;;;;7.39;51.21;102361.90;1774376;80;21034;-51
2022/01/02 08:45:15;;;;;;;0.90;0.90;;;;;;;7.38;51.10;102367.03;1750988;80;21039;-51
2022/01/02 08:47:41;;;;;;;1.20;1.10;;;;;;;7.39;50.78;102370.08;1749971;80;21022;-51
2022/01/02 08:50:08;;;;;;;1.05;0.98;;;;;;;7.39;50.72;102373.97;1748560;80;21054;-51
2022/01/02 08:52:36;;;;;;;1.02;0.93;;;;;;;7.41;50.78;102374.86;1748059;80;21010;-52
2022/01/02 08:55:04;;;;;;;1.22;0.90;;;;;;;7.42;51.08;102371.86;1760367;80;20996;-52
2022/01/02 08:57:31;;;;;;;0.72;0.72;;;;;;;7.43;51.03;102373.17;1762004;80;21026;-51
2022/01/02 08:59:57;;;;;;;0.68;0.68;;;;;;;7.42;50.85;102370.11;1758775;80;20951;-53
2022/01/02 09:02:23;;;;;;;0.75;0.75;;;;;;;7.43;50.71;102369.28;1758441;80;21071;-52
2022/01/02 09:04:50;;;;;;;1.45;1.00;;;;;;;7.45;50.83;102368.89;1756119;80;21017;-52
2022/01/02 09:07:17;;;;;;;0.90;0.90;;;;;;;7.46;50.93;102366.73;1758458;80;21073;-51
2022/01/02 09:09:43;;;;;;;1.02;0.93;;;;;;;7.47;51.16;102355.95;1752204;80;21064;-51
2022/01/02 09:12:12;;;;;;;0.90;0.88;;;;;;;7.51;50.92;102350.85;1759378;80;21022;-52
2022/01/02 09:14:39;;;;;;;1.02;0.93;;;;;;;7.53;50.78;102353.05;1761394;81;21082;-52
2022/01/02 09:17:05;;;;;;;0.95;0.88;;;;;;;7.54;50.80;102349.63;1768261;80;21042;-52
2022/01/02 09:19:32;;;;;;;0.85;0.80;;;;;;;7.54;50.56;102349.63;1756471;81;21489;-51
2022/01/02 09:21:59;;;;;;;1.10;1.00;;;;;;;7.53;50.38;102353.05;1763463;80;21081;-52
2022/01/02 09:24:25;;;;;;;2.08;0.80;;;;;;;7.53;50.69;102355.63;1764052;80;21147;-52
2022/01/02 09:26:52;;;;;;;2.58;1.92;;;;;;;7.59;50.77;102355.73;1756880;80;21010;-53
2022/01/02 09:29:18;;;;;;;1.52;1.30;;;;;;;7.66;50.60;102357.58;1766623;80;21026;-52
2022/01/02 09:31:46;;;;;;;1.22;1.12;;;;;;;7.75;50.48;102367.22;1756122;80;21074;-52
2022/01/02 09:34:12;;;;;;;1.17;1.00;;;;;;;7.82;50.18;102363.86;1752312;80;20998;-51
2022/01/02 09:36:40;;;;;;;1.82;1.20;;;;;;;7.84;50.20;102370.81;1761153;80;21045;-51
2022/01/02 09:39:06;;;;;;;1.30;1.20;;;;;;;7.90;50.17;102370.91;1772986;80;21013;-52
2022/01/02 09:41:33;;;;;;;0.93;0.90;;;;;;;7.93;50.18;102370.92;1759699;80;21088;-53
2022/01/02 09:43:59;;;;;;;0.80;0.80;;;;;;;7.94;50.12;102370.09;1754135;80;21018;-51
2022/01/02 09:46:27;;;;;;;1.17;0.88;;;;;;;7.95;50.11;102374.45;1753126;80;21558;-52
2022/01/02 09:48:54;;;;;;;1.02;1.00;;;;;;;7.98;50.27;102378.36;1760995;80;21079;-53
2022/01/02 09:51:26;;;;;;;1.57;0.98;;;;;;;8.01;50.01;102377.12;1761740;80;21054;-52
2022/01/02 09:53:54;;;;;;;1.10;1.10;;;;;;;8.00;49.93;102377.95;1772255;80;21022;-52
2022/01/02 09:56:20;;;;;;;0.90;0.90;;;;;;;8.03;49.98;102378.02;1761981;80;21057;-52
2022/01/02 09:58:46;;;;;;;2.70;1.00;;;;;;;8.05;49.98;102381.50;1754742;80;20958;-52
2022/01/02 10:01:18;;;;;;;1.10;1.00;;;;;;;8.06;49.82;102370.27;1746883;80;21065;-52
2022/01/02 10:03:50;;;;;;;1.10;1.02;;;;;;;8.08;49.90;102362.50;1637389;86;21046;-52
2022/01/02 10:06:17;;;;;;;1.27;1.00;;;;;;;8.09;49.87;102361.67;1660705;85;21595;-52
2022/01/02 10:08:44;;;;;;;1.05;0.95;;;;;;;8.10;49.83;102350.02;1651477;85;21044;-51
2022/01/02 10:11:21;;;;;;;0.80;0.80;;;;;;;8.12;49.77;102356.09;1637854;86;21080;-51
2022/01/02 10:16:40;;;;;;;0.90;0.90;;;;;;;8.20;49.72;102349.73;1582070;89;22857;-52
2022/01/02 10:22:00;;;;;;;0.82;0.82;;;;;;;8.29;49.16;102359.36;1564120;90;21188;-52
2022/01/02 10:24:33;;;;;;;0.98;0.85;;;;;;;8.32;49.05;102368.48;1572239;90;21134;-52
2022/01/02 10:27:10;;;;;;;1.80;1.05;;;;;;;8.37;48.92;102365.09;1563037;90;21073;-53
2022/01/02 10:29:58;;;;;;;1.30;1.15;;;;;;;8.40;48.73;102351.30;1554083;90;21038;-52
2022/01/02 10:32:36;;;;;;;1.10;1.02;;;;;;;8.38;48.33;102348.70;1577196;90;21114;-51
2022/01/02 10:35:22;;;;;;;1.20;0.95;;;;;;;8.34;48.62;102339.14;1585594;90;21124;-51
2022/01/02 10:37:57;;;;;;;3.77;1.00;;;;;;;8.36;48.78;102340.45;1566306;90;21083;-52
2022/01/02 10:43:07;;;;;;;;;;;;;;;8.40;48.63;102335.32;1545092;91;21142;-52
2022/01/02 10:45:43;;;;;;;1.22;1.10;;;;;;;8.43;48.57;102346.17;1546013;92;20140;-51
2022/01/02 10:48:12;;;;;;;0.80;0.80;;;;;;;8.42;48.39;102356.96;1549513;92;21074;-51
2022/01/02 10:50:40;;;;;;;1.62;1.00;;;;;;;8.42;48.50;102357.38;1550820;91;21116;-51
2022/01/02 10:53:16;;;;;;;1.07;0.98;;;;;;;8.42;48.60;102350.89;1539143;92;22647;-51
2022/01/02 10:55:45;;;;;;;1.25;1.07;;;;;;;8.40;48.60;102356.08;1542705;92;21565;-51
2022/01/02 10:58:12;;;;;;;1.35;1.10;;;;;;;8.38;48.55;102358.20;1544493;92;21138;-51
2022/01/02 11:00:40;;;;;;;1.17;1.10;;;;;;;8.35;48.57;102360.31;1561577;90;21754;-51
2022/01/02 11:03:07;;;;;;;1.02;1.00;;;;;;;8.35;48.63;102363.33;1565129;90;21751;-51
2022/01/02 11:05:35;;;;;;;1.10;1.10;;;;;;;8.34;48.65;102373.27;1566562;90;21497;-51
2022/01/02 11:08:03;;;;;;;1.10;1.00;;;;;;;8.37;48.72;102382.37;1559071;91;21108;-51
2022/01/02 11:10:36;;;;;;;1.25;1.15;;;;;;;8.39;48.75;102382.00;1559702;89;21105;-51
2022/01/02 11:13:05;;;;;;;1.22;1.12;;;;;;;8.42;48.64;102369.93;1556810;90;21700;-51
2022/01/02 11:15:32;;;;;;;0.80;0.80;;;;;;;8.39;48.39;102358.66;1551716;90;21166;-51
2022/01/02 11:18:00;;;;;;;1.10;1.00;;;;;;;8.34;48.60;102352.52;1551950;90;21179;-51
2022/01/02 11:20:32;;;;;;;1.12;0.90;;;;;;;8.33;48.93;102358.13;1555242;90;21604;-51
2022/01/02 11:23:21;;;;;;;1.50;1.40;;;;;;;8.34;48.88;102362.48;1568734;90;21624;-51
2022/01/02 11:26:08;;;;;;;2.55;2.35;;;;;;;8.38;48.55;102372.46;1604384;87;21085;-51
2022/01/02 11:28:49;;;;;;;1.60;1.50;;;;;;;8.40;48.44;102375.95;1592466;89;21149;-52
2022/01/02 11:31:37;;;;;;;1.02;0.95;;;;;;;8.43;48.22;102368.22;1536733;92;21193;-52
2022/01/02 11:34:33;;;;;;;0.70;0.70;;;;;;;8.45;47.95;102363.92;1563858;91;21593;-51
2022/01/02 11:37:17;;;;;;;1.35;1.00;;;;;;;8.42;48.12;102360.85;1564801;91;21112;-51
2022/01/02 11:40:02;;;;;;;0.80;0.80;;;;;;;8.43;47.85;102355.25;1589303;88;21065;-51
2022/01/02 11:42:42;;;;;;;1.40;0.90;;;;;;;8.41;47.93;102350.02;1612612;88;21152;-51
2022/01/02 11:45:12;;;;;;;1.15;0.95;;;;;;;8.43;48.00;102349.61;1613532;88;21118;-51
2022/01/02 11:47:44;;;;;;;3.37;0.93;;;;;;;8.43;47.74;102346.17;1624264;88;21124;-51
2022/01/02 11:50:35;;;;;;;1.10;1.00;;;;;;;8.38;47.75;102345.22;1617473;88;21085;-52
2022/01/02 11:53:17;;;;;;;1.00;0.90;;;;;;;8.35;47.88;102351.66;1625773;87;21529;-52
2022/01/02 11:55:45;;;;;;;0.88;0.80;;;;;;;8.35;48.07;102358.14;1630637;88;21664;-51